Time;durP1;ratioP1;P1;durP2;ratioP2;P2;SDS_P1;SDS_P2;PMS_P1;PMS_P2;Temp;Humidity;BMP_temperature;BMP_pressure;BME280_temperature;BME280_humidity;BME280_pressure;Samples;Min_cycle;Max_cycle;Signal;HPM_P1;HPM_P2
2021/08/13 00:01:42;;;;;;;15.50;12.40;;;;;;;;;;5013415;28;20734;-47
2021/08/13 00:04:08;;;;;;;17.23;12.50;;;;;;;;;;5013444;28;20883;-44
2021/08/13 00:06:34;;;;;;;13.80;11.83;;;;;;;;;;5013428;28;20404;-44
2021/08/13 00:09:00;;;;;;;16.57;12.13;;;;;;;;;;5013133;28;20489;-45
2021/08/13 00:11:26;;;;;;;17.07;12.67;;;;;;;;;;5012697;28;20386;-44
2021/08/13 00:13:52;;;;;;;14.73;11.57;;;;;;;;;;5013231;28;20934;-43
2021/08/13 00:16:18;;;;;;;13.47;11.63;;;;;;;;;;5013108;28;20393;-44
2021/08/13 00:18:44;;;;;;;14.53;10.67;;;;;;;;;;5013234;28;20430;-45
2021/08/13 00:21:11;;;;;;;17.73;12.30;;;;;;;;;;5013169;28;20465;-44
2021/08/13 00:23:37;;;;;;;15.00;11.50;;;;;;;;;;5013647;28;20400;-44
2021/08/13 00:26:03;;;;;;;14.73;12.00;;;;;;;;;;5013090;28;20396;-45
2021/08/13 00:28:29;;;;;;;13.07;11.07;;;;;;;;;;5013237;28;20434;-45
2021/08/13 00:30:55;;;;;;;14.47;11.80;;;;;;;;;;5012738;28;20430;-45
2021/08/13 00:33:21;;;;;;;12.47;11.10;;;;;;;;;;5012988;28;20384;-44
2021/08/13 00:35:46;;;;;;;13.60;12.20;;;;;;;;;;5012854;28;20399;-44
2021/08/13 00:38:12;;;;;;;11.83;10.63;;;;;;;;;;5012418;28;20879;-44
2021/08/13 00:40:39;;;;;;;14.00;12.07;;;;;;;;;;5012716;28;20403;-45
2021/08/13 00:43:05;;;;;;;20.63;12.73;;;;;;;;;;5012659;28;20411;-45
2021/08/13 00:45:30;;;;;;;13.00;11.07;;;;;;;;;;4994948;28;20400;-44
2021/08/13 00:47:56;;;;;;;16.93;11.17;;;;;;;;;;5012471;28;20495;-45
2021/08/13 00:50:22;;;;;;;15.57;11.77;;;;;;;;;;5012403;28;20412;-46
2021/08/13 00:52:49;;;;;;;15.17;12.20;;;;;;;;;;5012418;28;20386;-46
2021/08/13 00:55:15;;;;;;;15.27;11.27;;;;;;;;;;5012542;28;20411;-44
2021/08/13 00:57:42;;;;;;;17.93;11.77;;;;;;;;;;5012304;28;20415;-44
2021/08/13 01:00:08;;;;;;;12.17;10.87;;;;;;;;;;5012127;28;20461;-46
2021/08/13 01:02:35;;;;;;;22.53;13.20;;;;;;;;;;5011560;28;20453;-45
2021/08/13 01:05:01;;;;;;;17.47;11.57;;;;;;;;;;5011793;28;20390;-46
2021/08/13 01:07:27;;;;;;;13.67;11.47;;;;;;;;;;5012020;28;20402;-47
2021/08/13 01:09:53;;;;;;;17.00;12.93;;;;;;;;;;5011941;28;20426;-44
2021/08/13 01:12:42;;;;;;;13.13;11.00;;;;;;;;;;5012317;28;20379;-45
2021/08/13 01:15:08;;;;;;;15.13;12.20;;;;;;;;;;5012462;28;20439;-44
2021/08/13 01:17:38;;;;;;;13.97;11.17;;;;;;;;;;5011846;28;20976;-45
2021/08/13 01:20:07;;;;;;;16.03;11.30;;;;;;;;;;5011743;28;20466;-44
2021/08/13 01:22:42;;;;;;;18.00;11.87;;;;;;;;;;5011851;28;20403;-44
2021/08/13 01:25:09;;;;;;;13.90;12.27;;;;;;;;;;5011895;28;20785;-44
2021/08/13 01:27:37;;;;;;;13.77;11.33;;;;;;;;;;5011549;28;20418;-44
2021/08/13 01:30:07;;;;;;;11.63;10.10;;;;;;;;;;5011601;28;20467;-45
2021/08/13 01:32:52;;;;;;;17.77;12.83;;;;;;;;;;5011626;28;20772;-45
2021/08/13 01:35:21;;;;;;;15.07;12.17;;;;;;;;;;4994092;28;20963;-45
2021/08/13 01:37:50;;;;;;;13.30;11.17;;;;;;;;;;5011427;28;20427;-45
2021/08/13 01:40:17;;;;;;;13.67;11.80;;;;;;;;;;5011380;28;20458;-46
2021/08/13 01:42:44;;;;;;;17.83;11.17;;;;;;;;;;5011525;28;20389;-46
2021/08/13 01:45:11;;;;;;;13.10;11.50;;;;;;;;;;5011475;28;20399;-46
2021/08/13 01:47:37;;;;;;;11.43;10.33;;;;;;;;;;5011239;28;20426;-47
2021/08/13 01:50:04;;;;;;;13.90;10.50;;;;;;;;;;5011350;28;20403;-45
2021/08/13 01:52:30;;;;;;;17.30;11.40;;;;;;;;;;5011421;28;20410;-45
2021/08/13 01:54:57;;;;;;;14.20;11.30;;;;;;;;;;5011417;28;20402;-45
2021/08/13 01:57:24;;;;;;;15.77;10.60;;;;;;;;;;5011088;28;20412;-47
2021/08/13 01:59:51;;;;;;;10.93;9.63;;;;;;;;;;5011059;28;20462;-44
2021/08/13 02:02:17;;;;;;;13.50;11.00;;;;;;;;;;5011543;28;20403;-44
2021/08/13 02:04:44;;;;;;;13.97;12.27;;;;;;;;;;5011273;28;20426;-46
2021/08/13 02:07:11;;;;;;;14.13;10.83;;;;;;;;;;5011129;28;20797;-45
2021/08/13 02:09:37;;;;;;;14.47;11.40;;;;;;;;;;5010997;28;20381;-45
2021/08/13 02:12:03;;;;;;;14.53;11.17;;;;;;;;;;5011641;28;20410;-44
2021/08/13 02:14:29;;;;;;;13.50;12.07;;;;;;;;;;5011098;28;20463;-44
2021/08/13 02:16:56;;;;;;;15.13;11.83;;;;;;;;;;5011178;28;20389;-44
2021/08/13 02:19:43;;;;;;;15.93;11.10;;;;;;;;;;5011299;28;20832;-47
2021/08/13 02:22:09;;;;;;;16.83;10.93;;;;;;;;;;5011117;28;20383;-45
2021/08/13 02:24:35;;;;;;;16.87;11.57;;;;;;;;;;5011142;28;20798;-44
2021/08/13 02:27:01;;;;;;;15.03;11.10;;;;;;;;;;5011076;28;20416;-45
2021/08/13 02:29:27;;;;;;;17.27;11.90;;;;;;;;;;5011081;28;20377;-44
2021/08/13 02:31:53;;;;;;;16.00;11.83;;;;;;;;;;5010909;28;20433;-44
2021/08/13 02:34:19;;;;;;;14.20;11.40;;;;;;;;;;5011436;28;20430;-44
2021/08/13 02:36:58;;;;;;;15.53;12.20;;;;;;;;;;5017163;28;20449;-44
2021/08/13 02:39:29;;;;;;;14.90;10.73;;;;;;;;;;5017399;28;20564;-44
2021/08/13 02:42:00;;;;;;;14.00;11.20;;;;;;;;;;5017470;28;20457;-45
2021/08/13 02:44:27;;;;;;;16.90;12.67;;;;;;;;;;5017383;28;20836;-44
2021/08/13 02:46:56;;;;;;;16.07;11.63;;;;;;;;;;5017366;28;20402;-45
2021/08/13 02:49:23;;;;;;;15.30;11.43;;;;;;;;;;5017310;28;20406;-44
2021/08/13 02:51:52;;;;;;;14.13;11.10;;;;;;;;;;5017092;28;20409;-45
2021/08/13 02:54:24;;;;;;;13.17;10.67;;;;;;;;;;5017193;28;20383;-44
2021/08/13 02:56:52;;;;;;;12.17;10.87;;;;;;;;;;5017266;28;20419;-44
2021/08/13 02:59:19;;;;;;;17.17;12.37;;;;;;;;;;5017381;28;20437;-44
2021/08/13 03:01:45;;;;;;;16.17;11.27;;;;;;;;;;5017076;28;20410;-46
2021/08/13 03:04:12;;;;;;;13.80;11.30;;;;;;;;;;5017093;28;20406;-45
2021/08/13 03:06:39;;;;;;;15.00;11.30;;;;;;;;;;5017074;28;20914;-45
2021/08/13 03:09:06;;;;;;;14.23;11.57;;;;;;;;;;5017293;28;20792;-44
2021/08/13 03:11:33;;;;;;;14.10;11.40;;;;;;;;;;5016843;28;20395;-44
2021/08/13 03:13:59;;;;;;;11.30;10.20;;;;;;;;;;5017203;28;20485;-44
2021/08/13 03:16:25;;;;;;;14.20;10.57;;;;;;;;;;5016941;28;20403;-44
2021/08/13 03:18:51;;;;;;;12.90;11.00;;;;;;;;;;5016924;28;20557;-44
2021/08/13 03:21:17;;;;;;;16.87;12.30;;;;;;;;;;5016808;28;20403;-44
2021/08/13 03:23:44;;;;;;;13.77;11.37;;;;;;;;;;5016994;28;20903;-47
2021/08/13 03:26:10;;;;;;;11.40;10.20;;;;;;;;;;5016772;28;20862;-45
2021/08/13 03:28:36;;;;;;;12.70;11.23;;;;;;;;;;5017033;28;20401;-44
2021/08/13 03:31:03;;;;;;;13.10;11.80;;;;;;;;;;5016684;28;20412;-44
2021/08/13 03:33:29;;;;;;;15.23;11.60;;;;;;;;;;5016832;28;20379;-45
2021/08/13 03:35:56;;;;;;;16.63;12.03;;;;;;;;;;5016780;28;20392;-45
2021/08/13 03:38:22;;;;;;;14.20;12.30;;;;;;;;;;5016593;28;20991;-44
2021/08/13 03:40:48;;;;;;;17.17;12.50;;;;;;;;;;5016595;28;20468;-44
2021/08/13 03:43:14;;;;;;;15.47;11.27;;;;;;;;;;5016816;28;20745;-45
2021/08/13 03:45:40;;;;;;;17.13;12.33;;;;;;;;;;5016570;28;20373;-45
2021/08/13 03:48:06;;;;;;;13.63;12.20;;;;;;;;;;5012284;28;20437;-45
2021/08/13 03:50:32;;;;;;;20.03;11.67;;;;;;;;;;5013521;28;20437;-45
2021/08/13 03:52:58;;;;;;;16.43;13.60;;;;;;;;;;5013560;28;20380;-45
2021/08/13 03:55:24;;;;;;;15.03;12.07;;;;;;;;;;5013517;28;20388;-46
2021/08/13 03:57:51;;;;;;;14.07;12.30;;;;;;;;;;5013449;28;20436;-45
2021/08/13 04:00:17;;;;;;;14.90;11.93;;;;;;;;;;5013196;28;20531;-45
2021/08/13 04:02:43;;;;;;;15.83;11.83;;;;;;;;;;5013404;28;20380;-44
2021/08/13 04:05:09;;;;;;;14.57;11.17;;;;;;;;;;5013425;28;21018;-44
2021/08/13 04:07:35;;;;;;;21.07;12.53;;;;;;;;;;5013371;28;20395;-44
2021/08/13 04:10:01;;;;;;;15.40;11.70;;;;;;;;;;5013143;28;20779;-44
2021/08/13 04:12:27;;;;;;;21.23;12.13;;;;;;;;;;5013282;28;20894;-45
2021/08/13 04:14:53;;;;;;;13.63;11.50;;;;;;;;;;5013220;28;20392;-45
2021/08/13 04:17:19;;;;;;;20.17;11.93;;;;;;;;;;5013183;28;20404;-45
2021/08/13 04:19:45;;;;;;;13.37;11.33;;;;;;;;;;5012930;28;20426;-45
2021/08/13 04:22:11;;;;;;;13.07;11.70;;;;;;;;;;5013291;28;20413;-45
2021/08/13 04:24:38;;;;;;;17.93;12.30;;;;;;;;;;5013198;28;20427;-45
2021/08/13 04:27:04;;;;;;;18.83;13.47;;;;;;;;;;5012896;28;20860;-44
2021/08/13 04:29:30;;;;;;;16.17;13.30;;;;;;;;;;5012885;28;20882;-46
2021/08/13 04:31:56;;;;;;;17.10;13.13;;;;;;;;;;5012900;28;20385;-45
2021/08/13 04:34:22;;;;;;;14.93;12.20;;;;;;;;;;5012790;28;20413;-44
2021/08/13 04:36:48;;;;;;;18.03;13.23;;;;;;;;;;5012856;28;20418;-45
2021/08/13 04:39:14;;;;;;;14.53;13.03;;;;;;;;;;5012668;28;20452;-44
2021/08/13 04:41:40;;;;;;;16.13;11.90;;;;;;;;;;5012823;28;20402;-45
2021/08/13 04:44:06;;;;;;;14.87;13.23;;;;;;;;;;5012825;28;20421;-45
2021/08/13 04:46:32;;;;;;;16.93;12.27;;;;;;;;;;5012927;28;20402;-45
2021/08/13 04:48:58;;;;;;;15.07;12.00;;;;;;;;;;5012749;28;20418;-45
2021/08/13 04:51:24;;;;;;;18.37;13.00;;;;;;;;;;5012747;28;20503;-45
2021/08/13 04:53:50;;;;;;;24.27;13.13;;;;;;;;;;5012922;28;20406;-47
2021/08/13 04:56:15;;;;;;;13.77;11.57;;;;;;;;;;5012824;28;20389;-47
2021/08/13 04:58:41;;;;;;;16.00;11.67;;;;;;;;;;5012011;28;20464;-44
2021/08/13 05:01:07;;;;;;;13.67;12.10;;;;;;;;;;5012324;28;20406;-44
2021/08/13 05:03:33;;;;;;;16.23;12.03;;;;;;;;;;5012302;28;20481;-44
2021/08/13 05:05:59;;;;;;;14.87;11.93;;;;;;;;;;5012242;28;20401;-44
2021/08/13 05:08:25;;;;;;;13.93;11.50;;;;;;;;;;5012119;28;20424;-45
2021/08/13 05:10:51;;;;;;;16.23;12.67;;;;;;;;;;5011971;28;20767;-45
2021/08/13 05:13:17;;;;;;;16.70;11.80;;;;;;;;;;5012018;28;20456;-45
2021/08/13 05:15:43;;;;;;;14.70;12.60;;;;;;;;;;5012127;28;20374;-45
2021/08/13 05:18:09;;;;;;;26.23;12.87;;;;;;;;;;5011981;28;20426;-45
2021/08/13 05:20:35;;;;;;;15.10;12.13;;;;;;;;;;5011835;28;20549;-47
2021/08/13 05:23:01;;;;;;;14.97;12.43;;;;;;;;;;5011898;28;20868;-46
2021/08/13 05:25:27;;;;;;;14.43;12.00;;;;;;;;;;5011866;28;20467;-47
2021/08/13 05:27:53;;;;;;;16.47;12.07;;;;;;;;;;5011664;28;20423;-45
2021/08/13 05:30:19;;;;;;;15.03;12.50;;;;;;;;;;5011582;28;20418;-45
2021/08/13 05:32:47;;;;;;;18.97;12.63;;;;;;;;;;5011800;28;20954;-44
2021/08/13 05:35:14;;;;;;;15.90;12.40;;;;;;;;;;5011943;28;20373;-47
2021/08/13 05:37:40;;;;;;;16.03;12.33;;;;;;;;;;5011487;28;20445;-45
2021/08/13 05:40:06;;;;;;;15.87;11.53;;;;;;;;;;5011423;28;20443;-44
2021/08/13 05:42:32;;;;;;;19.77;12.30;;;;;;;;;;5011607;28;20400;-44
2021/08/13 05:44:58;;;;;;;19.57;11.80;;;;;;;;;;5011550;28;20891;-44
2021/08/13 05:47:24;;;;;;;15.00;12.20;;;;;;;;;;5011439;28;20430;-44
2021/08/13 05:49:50;;;;;;;21.23;13.00;;;;;;;;;;5011335;28;20501;-45
2021/08/13 05:52:16;;;;;;;13.17;10.00;;;;;;;;;;5011470;28;20473;-45
2021/08/13 05:54:42;;;;;;;15.10;12.07;;;;;;;;;;5011255;28;20399;-45
2021/08/13 05:57:08;;;;;;;17.50;11.73;;;;;;;;;;5011604;28;20406;-47
2021/08/13 05:59:34;;;;;;;14.70;11.83;;;;;;;;;;5010916;28;20481;-44
2021/08/13 06:02:00;;;;;;;16.17;11.50;;;;;;;;;;5010587;28;20409;-44
2021/08/13 06:04:26;;;;;;;14.27;10.03;;;;;;;;;;5010914;28;20386;-44
2021/08/13 06:06:52;;;;;;;13.53;11.40;;;;;;;;;;5010835;28;20407;-44
2021/08/13 06:09:18;;;;;;;17.57;11.57;;;;;;;;;;5010162;28;20454;-44
2021/08/13 06:11:44;;;;;;;14.23;10.63;;;;;;;;;;5010333;28;20888;-44
2021/08/13 06:14:10;;;;;;;18.47;10.83;;;;;;;;;;5010605;28;20764;-45
2021/08/13 06:16:36;;;;;;;18.63;10.83;;;;;;;;;;5010531;28;20463;-45
2021/08/13 06:19:02;;;;;;;11.50;9.53;;;;;;;;;;5010768;28;20491;-45
2021/08/13 06:21:32;;;;;;;13.73;10.30;;;;;;;;;;5010443;28;20396;-45
2021/08/13 06:23:58;;;;;;;13.10;9.80;;;;;;;;;;5010942;28;20407;-46
2021/08/13 06:26:24;;;;;;;14.37;10.40;;;;;;;;;;5010934;28;20908;-47
2021/08/13 06:28:50;;;;;;;13.70;9.90;;;;;;;;;;5010977;28;20436;-46
2021/08/13 06:31:16;;;;;;;12.47;10.80;;;;;;;;;;5010549;28;20402;-46
2021/08/13 06:33:42;;;;;;;11.50;9.70;;;;;;;;;;5010953;28;20416;-47
2021/08/13 06:36:08;;;;;;;12.23;10.13;;;;;;;;;;5013188;28;20434;-48
2021/08/13 06:38:34;;;;;;;13.53;9.57;;;;;;;;;;5013210;28;20462;-45
2021/08/13 06:41:00;;;;;;;12.30;9.60;;;;;;;;;;5011550;28;20570;-46
2021/08/13 06:43:26;;;;;;;15.40;10.90;;;;;;;;;;5010851;28;20445;-46
2021/08/13 06:45:52;;;;;;;18.50;9.83;;;;;;;;;;5010873;28;20399;-47
2021/08/13 06:48:20;;;;;;;12.30;9.43;;;;;;;;;;5010615;28;20419;-46
2021/08/13 06:50:47;;;;;;;11.30;9.50;;;;;;;;;;5010601;28;20417;-46
2021/08/13 06:53:13;;;;;;;10.33;9.33;;;;;;;;;;5010490;28;20399;-46
2021/08/13 06:55:39;;;;;;;11.27;10.10;;;;;;;;;;5011240;28;20766;-46
2021/08/13 06:58:05;;;;;;;11.90;9.40;;;;;;;;;;5010475;28;20426;-46
2021/08/13 07:00:31;;;;;;;10.53;9.10;;;;;;;;;;5010441;28;20532;-46
2021/08/13 07:02:57;;;;;;;11.27;9.43;;;;;;;;;;5010530;28;20692;-46
2021/08/13 07:05:23;;;;;;;10.87;9.37;;;;;;;;;;5010609;28;20407;-46
2021/08/13 07:07:49;;;;;;;12.53;9.00;;;;;;;;;;5010084;28;20419;-46
2021/08/13 07:10:15;;;;;;;10.37;8.67;;;;;;;;;;5010386;28;20772;-46
2021/08/13 07:12:41;;;;;;;12.90;8.47;;;;;;;;;;5010594;28;20404;-46
2021/08/13 07:15:08;;;;;;;11.20;9.50;;;;;;;;;;5010548;28;20479;-46
2021/08/13 07:17:35;;;;;;;11.40;10.10;;;;;;;;;;5010460;28;20509;-46
2021/08/13 07:20:01;;;;;;;10.53;9.00;;;;;;;;;;5010178;28;21201;-46
2021/08/13 07:22:27;;;;;;;11.03;9.80;;;;;;;;;;5013817;28;20437;-46
2021/08/13 07:24:53;;;;;;;17.23;10.97;;;;;;;;;;5014101;28;20403;-46
2021/08/13 07:27:19;;;;;;;11.37;9.37;;;;;;;;;;5014758;28;20435;-47
2021/08/13 07:29:45;;;;;;;12.03;9.27;;;;;;;;;;5014466;28;20410;-46
2021/08/13 07:32:11;;;;;;;10.80;9.70;;;;;;;;;;5013761;28;20891;-46
2021/08/13 07:34:37;;;;;;;10.37;9.10;;;;;;;;;;5012872;28;20464;-45
2021/08/13 07:37:03;;;;;;;13.77;10.50;;;;;;;;;;5012838;28;20925;-45
2021/08/13 07:39:29;;;;;;;14.33;10.27;;;;;;;;;;5013817;28;20464;-45
2021/08/13 07:41:55;;;;;;;14.37;10.00;;;;;;;;;;5013968;28;20489;-46
2021/08/13 07:44:21;;;;;;;10.50;9.40;;;;;;;;;;5013842;28;20496;-45
2021/08/13 07:46:47;;;;;;;13.17;10.47;;;;;;;;;;5013857;28;20412;-46
2021/08/13 07:49:13;;;;;;;9.53;8.53;;;;;;;;;;5013633;28;20429;-46
2021/08/13 07:51:40;;;;;;;10.97;9.40;;;;;;;;;;5013448;28;20493;-47
2021/08/13 07:54:06;;;;;;;9.73;8.73;;;;;;;;;;5013967;28;20407;-46
2021/08/13 07:56:32;;;;;;;16.43;9.80;;;;;;;;;;5013640;28;21006;-46
2021/08/13 07:58:58;;;;;;;10.03;8.17;;;;;;;;;;5013511;28;20450;-45
2021/08/13 08:01:24;;;;;;;9.43;8.50;;;;;;;;;;5013409;28;20451;-46
2021/08/13 08:03:50;;;;;;;9.33;8.47;;;;;;;;;;5013515;28;20547;-46
2021/08/13 08:06:16;;;;;;;11.00;8.20;;;;;;;;;;5013290;28;20410;-46
2021/08/13 08:08:42;;;;;;;12.33;9.30;;;;;;;;;;5012612;28;20993;-48
2021/08/13 08:11:08;;;;;;;8.40;7.60;;;;;;;;;;5012946;28;20403;-46
2021/08/13 08:13:34;;;;;;;10.00;8.30;;;;;;;;;;5013728;28;20399;-47
2021/08/13 08:16:03;;;;;;;10.10;8.70;;;;;;;;;;5013361;28;20910;-47
2021/08/13 08:18:29;;;;;;;9.70;8.80;;;;;;;;;;5013233;28;20419;-47
2021/08/13 08:20:55;;;;;;;11.63;9.40;;;;;;;;;;5012964;28;20410;-46
2021/08/13 08:23:21;;;;;;;13.97;8.77;;;;;;;;;;5013216;28;20915;-46
2021/08/13 08:25:47;;;;;;;10.30;8.47;;;;;;;;;;5011993;28;20438;-46
2021/08/13 08:28:13;;;;;;;9.03;8.07;;;;;;;;;;5012989;28;20426;-48
2021/08/13 08:30:39;;;;;;;14.70;8.50;;;;;;;;;;5012795;28;20924;-47
2021/08/13 08:33:05;;;;;;;10.20;8.33;;;;;;;;;;5012301;28;20408;-46
2021/08/13 08:35:31;;;;;;;11.60;8.30;;;;;;;;;;5012818;28;20498;-46
2021/08/13 08:37:58;;;;;;;10.60;7.97;;;;;;;;;;5012628;28;20497;-46
2021/08/13 08:40:25;;;;;;;10.80;8.67;;;;;;;;;;5012497;28;20541;-46
2021/08/13 08:42:52;;;;;;;11.20;10.00;;;;;;;;;;5012847;28;20410;-47
2021/08/13 08:45:18;;;;;;;14.43;9.93;;;;;;;;;;5012745;28;20399;-46
2021/08/13 08:47:44;;;;;;;15.13;11.60;;;;;;;;;;5012559;28;20430;-45
2021/08/13 08:50:11;;;;;;;11.00;9.60;;;;;;;;;;5012362;28;20411;-45
2021/08/13 08:52:39;;;;;;;9.90;8.87;;;;;;;;;;5012621;28;20445;-46
2021/08/13 08:55:06;;;;;;;13.53;10.00;;;;;;;;;;5012515;28;20411;-46
2021/08/13 08:57:34;;;;;;;11.50;10.30;;;;;;;;;;5012380;28;20937;-46
2021/08/13 09:00:00;;;;;;;13.90;9.50;;;;;;;;;;5012324;28;20482;-46
2021/08/13 09:02:26;;;;;;;11.00;9.80;;;;;;;;;;5012314;28;20942;-46
2021/08/13 09:04:52;;;;;;;14.40;10.90;;;;;;;;;;5012369;28;20408;-45
2021/08/13 09:07:18;;;;;;;12.23;10.77;;;;;;;;;;5012171;28;20421;-46
2021/08/13 09:09:44;;;;;;;13.57;11.63;;;;;;;;;;5012093;28;20399;-45
2021/08/13 09:12:10;;;;;;;15.77;13.20;;;;;;;;;;5012171;28;20411;-45
2021/08/13 09:14:37;;;;;;;18.67;12.57;;;;;;;;;;5012196;28;20949;-45
2021/08/13 09:17:03;;;;;;;13.70;11.83;;;;;;;;;;5011888;28;20406;-46
2021/08/13 09:19:46;;;;;;;12.97;11.13;;;;;;;;;;5012110;28;20443;-46
2021/08/13 09:22:17;;;;;;;12.50;11.20;;;;;;;;;;5012060;28;20433;-46
2021/08/13 09:24:44;;;;;;;13.47;10.03;;;;;;;;;;5012177;28;20403;-46
2021/08/13 09:27:16;;;;;;;24.27;12.70;;;;;;;;;;5011907;28;20414;-46
2021/08/13 09:30:02;;;;;;;14.90;11.80;;;;;;;;;;5011832;28;20419;-46
2021/08/13 09:32:28;;;;;;;14.33;10.37;;;;;;;;;;5011864;28;20406;-46
2021/08/13 09:34:55;;;;;;;12.40;10.83;;;;;;;;;;5011865;28;20403;-46
2021/08/13 09:37:21;;;;;;;15.43;11.40;;;;;;;;;;5011643;28;20454;-46
2021/08/13 09:39:52;;;;;;;14.00;11.77;;;;;;;;;;5011525;28;20454;-46
2021/08/13 09:42:18;;;;;;;16.90;11.37;;;;;;;;;;5011595;28;20411;-47
2021/08/13 09:44:45;;;;;;;14.13;11.50;;;;;;;;;;5010836;28;20850;-47
2021/08/13 09:47:12;;;;;;;17.73;11.67;;;;;;;;;;5010441;28;20902;-46
2021/08/13 09:49:39;;;;;;;16.67;11.77;;;;;;;;;;5011355;28;20914;-46
2021/08/13 09:52:12;;;;;;;16.60;13.53;;;;;;;;;;5011810;28;20458;-46
2021/08/13 09:54:38;;;;;;;15.47;12.20;;;;;;;;;;5010591;28;20407;-46
2021/08/13 09:57:08;;;;;;;14.70;10.93;;;;;;;;;;5010963;28;20446;-46
2021/08/13 09:59:34;;;;;;;14.07;12.40;;;;;;;;;;5011424;28;20455;-45
2021/08/13 10:02:09;;;;;;;15.47;12.23;;;;;;;;;;5011319;28;20896;-46
2021/08/13 10:04:36;;;;;;;13.70;12.20;;;;;;;;;;5011528;28;20398;-46
2021/08/13 10:07:02;;;;;;;23.90;12.10;;;;;;;;;;5011085;28;20832;-46
2021/08/13 10:09:29;;;;;;;17.47;12.97;;;;;;;;;;5011311;28;20407;-46
2021/08/13 10:12:15;;;;;;;19.60;13.27;;;;;;;;;;5011095;28;20418;-46
2021/08/13 10:14:43;;;;;;;15.70;12.77;;;;;;;;;;5011138;28;20418;-47
2021/08/13 10:17:16;;;;;;;19.90;13.50;;;;;;;;;;5010882;28;20419;-46
2021/08/13 10:19:43;;;;;;;15.20;13.53;;;;;;;;;;5010889;28;20485;-46
2021/08/13 10:22:09;;;;;;;15.63;11.03;;;;;;;;;;5011094;28;20433;-46
2021/08/13 10:24:36;;;;;;;16.33;11.37;;;;;;;;;;5011116;28;20399;-46
2021/08/13 10:27:03;;;;;;;12.23;10.93;;;;;;;;;;5010961;28;20493;-46
2021/08/13 10:29:29;;;;;;;13.47;12.17;;;;;;;;;;5011065;28;20410;-47
2021/08/13 10:31:56;;;;;;;17.30;13.70;;;;;;;;;;5010737;28;20407;-46
2021/08/13 10:34:22;;;;;;;17.47;11.37;;;;;;;;;;5010975;28;20791;-46
2021/08/13 10:36:48;;;;;;;18.53;11.77;;;;;;;;;;5010799;28;20399;-46
2021/08/13 10:39:16;;;;;;;13.80;11.10;;;;;;;;;;5010780;28;20843;-46
2021/08/13 10:41:43;;;;;;;17.53;12.20;;;;;;;;;;5010761;28;20457;-46
2021/08/13 10:44:11;;;;;;;14.37;11.47;;;;;;;;;;5010897;28;20402;-46
2021/08/13 10:46:38;;;;;;;17.30;12.00;;;;;;;;;;5010772;28;20403;-46
2021/08/13 10:49:05;;;;;;;11.73;9.80;;;;;;;;;;5010752;28;21119;-46
2021/08/13 10:51:33;;;;;;;15.03;12.27;;;;;;;;;;5010753;28;20982;-47
2021/08/13 10:54:09;;;;;;;15.80;12.40;;;;;;;;;;5010950;28;20812;-46
2021/08/13 10:56:39;;;;;;;13.97;12.17;;;;;;;;;;5012599;28;20417;-46
2021/08/13 10:59:06;;;;;;;17.50;13.80;;;;;;;;;;5014422;28;20471;-46
2021/08/13 11:01:32;;;;;;;21.07;12.47;;;;;;;;;;5014587;28;20896;-47
2021/08/13 11:03:58;;;;;;;13.53;11.20;;;;;;;;;;5014399;28;20403;-47
2021/08/13 11:06:36;;;;;;;11.00;9.23;;;;;;;;;;5014608;28;20441;-46
2021/08/13 11:09:03;;;;;;;11.83;9.70;;;;;;;;;;5014440;28;20510;-46
2021/08/13 11:11:48;;;;;;;11.60;9.33;;;;;;;;;;5014332;28;20418;-45
2021/08/13 11:14:37;;;;;;;10.40;9.30;;;;;;;;;;5014575;28;20899;-46
2021/08/13 11:17:03;;;;;;;17.50;9.63;;;;;;;;;;5004121;28;20465;-47
2021/08/13 11:19:49;;;;;;;13.93;8.43;;;;;;;;;;5014345;28;20488;-48
2021/08/13 11:22:28;;;;;;;9.30;7.77;;;;;;;;;;5014300;28;20403;-46
2021/08/13 11:24:54;;;;;;;10.40;8.13;;;;;;;;;;5014352;28;20402;-46
2021/08/13 11:27:20;;;;;;;22.13;8.57;;;;;;;;;;5014238;28;20509;-46
2021/08/13 11:29:46;;;;;;;9.37;7.30;;;;;;;;;;5014006;28;20415;-46
2021/08/13 11:32:17;;;;;;;7.43;6.40;;;;;;;;;;5014447;28;20440;-46
2021/08/13 11:34:50;;;;;;;9.47;6.60;;;;;;;;;;5013912;28;20410;-46
2021/08/13 11:37:28;;;;;;;6.83;6.23;;;;;;;;;;5013828;28;20438;-46
2021/08/13 11:39:54;;;;;;;7.73;6.20;;;;;;;;;;5013733;28;20482;-47
2021/08/13 11:42:22;;;;;;;7.17;5.80;;;;;;;;;;5014023;28;20498;-46
2021/08/13 11:44:51;;;;;;;9.37;6.60;;;;;;;;;;5013783;28;20430;-47
2021/08/13 11:47:18;;;;;;;8.40;6.27;;;;;;;;;;5013686;28;20449;-47
2021/08/13 11:49:45;;;;;;;8.13;5.70;;;;;;;;;;5013666;28;20411;-47
2021/08/13 11:52:11;;;;;;;6.73;6.03;;;;;;;;;;5013873;28;20414;-46
2021/08/13 11:54:37;;;;;;;13.80;6.50;;;;;;;;;;5013699;28;20395;-46
2021/08/13 11:57:12;;;;;;;7.53;6.40;;;;;;;;;;5013638;28;20407;-48
2021/08/13 11:59:38;;;;;;;9.27;5.43;;;;;;;;;;5013262;28;20454;-47
2021/08/13 12:02:04;;;;;;;5.63;4.87;;;;;;;;;;5013627;28;20407;-47
2021/08/13 12:04:30;;;;;;;7.30;5.20;;;;;;;;;;5013555;28;20430;-46
2021/08/13 12:07:02;;;;;;;7.77;5.97;;;;;;;;;;5013101;28;20426;-46
2021/08/13 12:09:30;;;;;;;5.30;4.80;;;;;;;;;;5012736;28;20406;-47
2021/08/13 12:11:56;;;;;;;6.90;5.10;;;;;;;;;;5013305;28;20477;-46
2021/08/13 12:14:22;;;;;;;6.20;5.50;;;;;;;;;;5013267;28;20411;-46
2021/08/13 12:16:57;;;;;;;7.10;5.77;;;;;;;;;;5013279;28;20442;-46
2021/08/13 12:19:24;;;;;;;6.17;5.57;;;;;;;;;;5013171;28;20998;-46
2021/08/13 12:21:54;;;;;;;9.53;5.70;;;;;;;;;;5013089;28;20465;-46
2021/08/13 12:24:30;;;;;;;8.17;5.33;;;;;;;;;;5013097;28;20402;-46
2021/08/13 12:27:00;;;;;;;5.30;4.77;;;;;;;;;;5013001;28;20407;-46
2021/08/13 12:29:27;;;;;;;9.30;5.20;;;;;;;;;;5012984;28;20418;-47
2021/08/13 12:31:57;;;;;;;5.37;4.87;;;;;;;;;;5012876;28;20890;-47
2021/08/13 12:34:24;;;;;;;4.60;4.30;;;;;;;;;;5013206;28;20745;-48
2021/08/13 12:37:06;;;;;;;5.40;4.90;;;;;;;;;;5012753;28;20772;-46
2021/08/13 12:39:33;;;;;;;7.00;4.77;;;;;;;;;;5012713;28;20486;-47
2021/08/13 12:42:00;;;;;;;4.60;4.20;;;;;;;;;;5012816;28;20415;-46
2021/08/13 12:44:26;;;;;;;4.87;4.30;;;;;;;;;;5012732;28;20447;-46
2021/08/13 12:46:52;;;;;;;3.90;3.60;;;;;;;;;;5012741;28;20416;-46
2021/08/13 12:49:19;;;;;;;4.17;3.77;;;;;;;;;;5012555;28;20423;-46
2021/08/13 12:51:45;;;;;;;4.17;3.77;;;;;;;;;;5012433;28;20439;-46
2021/08/13 12:54:29;;;;;;;4.40;3.63;;;;;;;;;;5012793;28;20482;-47
2021/08/13 12:56:59;;;;;;;6.10;4.20;;;;;;;;;;5012575;28;20414;-46
2021/08/13 12:59:34;;;;;;;4.77;3.93;;;;;;;;;;5012345;28;20443;-47
2021/08/13 13:02:00;;;;;;;3.60;3.30;;;;;;;;;;5012389;28;20461;-45
2021/08/13 13:04:39;;;;;;;3.70;3.20;;;;;;;;;;5012314;28;20395;-46
2021/08/13 13:07:06;;;;;;;3.10;2.90;;;;;;;;;;5011434;28;20403;-47
2021/08/13 13:09:33;;;;;;;2.90;2.70;;;;;;;;;;5012310;28;20457;-46
2021/08/13 13:12:18;;;;;;;2.93;2.60;;;;;;;;;;5012140;28;20410;-47
2021/08/13 13:14:45;;;;;;;3.10;2.90;;;;;;;;;;5012618;28;20406;-46
2021/08/13 13:17:12;;;;;;;3.10;2.80;;;;;;;;;;5012120;28;20395;-46
2021/08/13 13:19:38;;;;;;;4.77;3.00;;;;;;;;;;5011865;28;20451;-46
2021/08/13 13:22:16;;;;;;;4.77;2.93;;;;;;;;;;5012086;28;20406;-46
2021/08/13 13:24:42;;;;;;;4.03;2.80;;;;;;;;;;5012383;28;20732;-46
2021/08/13 13:27:08;;;;;;;2.53;2.33;;;;;;;;;;5012457;28;20398;-47
2021/08/13 13:29:35;;;;;;;2.70;2.50;;;;;;;;;;5012211;28;20443;-46
2021/08/13 13:32:11;;;;;;;4.87;2.90;;;;;;;;;;5011350;28;20470;-45
2021/08/13 13:34:37;;;;;;;4.53;2.47;;;;;;;;;;5011534;28;20941;-46
2021/08/13 13:37:13;;;;;;;4.60;2.53;;;;;;;;;;5011574;28;20443;-46
2021/08/13 13:39:40;;;;;;;2.77;2.53;;;;;;;;;;5011586;28;20542;-46
2021/08/13 13:42:06;;;;;;;2.73;2.20;;;;;;;;;;5011621;28;20438;-47
2021/08/13 13:44:32;;;;;;;3.30;2.67;;;;;;;;;;5011703;28;20458;-47
2021/08/13 13:46:58;;;;;;;2.30;2.20;;;;;;;;;;5011389;28;20412;-46
2021/08/13 13:49:24;;;;;;;2.60;2.50;;;;;;;;;;5011580;28;20411;-46
2021/08/13 13:51:50;;;;;;;3.27;3.03;;;;;;;;;;5010342;28;20411;-46
2021/08/13 13:54:16;;;;;;;3.50;2.80;;;;;;;;;;5010553;28;20508;-46
2021/08/13 13:56:42;;;;;;;6.83;2.67;;;;;;;;;;5010403;28;20427;-46
2021/08/13 13:59:08;;;;;;;2.60;2.40;;;;;;;;;;5010557;28;20513;-46
2021/08/13 14:01:34;;;;;;;2.70;2.40;;;;;;;;;;5010421;28;20399;-46
2021/08/13 14:04:00;;;;;;;2.90;2.60;;;;;;;;;;5010393;28;20457;-46
2021/08/13 14:06:26;;;;;;;3.27;2.60;;;;;;;;;;5010874;28;20404;-46
2021/08/13 14:08:52;;;;;;;3.40;2.33;;;;;;;;;;5010997;28;20433;-46
2021/08/13 14:11:18;;;;;;;2.87;2.67;;;;;;;;;;5011110;28;20435;-46
2021/08/13 14:13:44;;;;;;;3.30;3.10;;;;;;;;;;5011104;28;20765;-47
2021/08/13 14:16:10;;;;;;;7.33;3.03;;;;;;;;;;5011011;28;20403;-46
2021/08/13 14:18:36;;;;;;;3.40;2.77;;;;;;;;;;5010982;28;20419;-46
2021/08/13 14:21:02;;;;;;;3.50;2.73;;;;;;;;;;5010586;28;20497;-46
2021/08/13 14:23:28;;;;;;;3.43;2.83;;;;;;;;;;5011161;28;21051;-46
2021/08/13 14:25:53;;;;;;;3.63;3.10;;;;;;;;;;5011272;28;20427;-48
2021/08/13 14:28:19;;;;;;;3.53;2.97;;;;;;;;;;5010845;28;20414;-46